createdAt,value
2023-07-05T00:00:50.016Z,48.46
2023-07-05T00:01:51.669Z,48.22
2023-07-05T00:02:54.262Z,48.31
2023-07-05T00:03:56.227Z,48.42
2023-07-05T00:04:57.997Z,48.47
2023-07-05T00:06:03.621Z,48.76
2023-07-05T00:07:05.576Z,48.50
2023-07-05T00:08:07.518Z,48.59
2023-07-05T00:09:09.486Z,48.48
2023-07-05T00:10:11.959Z,48.83
2023-07-05T00:11:16.216Z,48.60
2023-07-05T00:12:20.908Z,48.94
2023-07-05T00:13:22.681Z,48.70
2023-07-05T00:14:24.277Z,48.78
2023-07-05T00:15:29.424Z,48.84
2023-07-05T00:16:31.228Z,48.74
2023-07-05T00:17:34.586Z,48.46
2023-07-05T00:18:37.546Z,48.25
2023-07-05T00:19:40.766Z,48.21
2023-07-05T00:20:42.451Z,48.17
2023-07-05T00:21:46.460Z,48.47
2023-07-05T00:22:48.148Z,48.48
2023-07-05T00:23:49.759Z,48.66
2023-07-05T00:24:52.650Z,48.97
2023-07-05T00:25:54.621Z,49.13
2023-07-05T00:26:56.477Z,49.41
2023-07-05T00:27:57.987Z,50.24
2023-07-05T00:28:59.668Z,49.80
2023-07-05T00:30:04.394Z,49.65
2023-07-05T00:31:07.390Z,50.72
2023-07-05T00:32:11.686Z,50.31
2023-07-05T00:33:15.803Z,50.28
2023-07-05T00:34:17.497Z,50.52
2023-07-05T00:35:19.143Z,50.21
2023-07-05T00:36:20.854Z,49.85
2023-07-05T00:37:22.458Z,50.17
2023-07-05T00:38:24.608Z,50.21
2023-07-05T00:39:27.922Z,49.89
2023-07-05T00:40:29.990Z,50.03
2023-07-05T00:41:31.732Z,49.94
2023-07-05T00:42:33.295Z,50.21
2023-07-05T00:43:47.980Z,50.24
2023-07-05T00:45:11.550Z,50.57
2023-07-05T00:46:25.461Z,50.59
2023-07-05T00:47:33.437Z,50.79
2023-07-05T00:48:42.616Z,50.60
2023-07-05T00:49:44.592Z,50.50
2023-07-05T00:50:52.161Z,50.86
2023-07-05T00:52:03.211Z,51.25
2023-07-05T00:53:05.231Z,51.30
2023-07-05T00:54:07.088Z,51.52
2023-07-05T00:55:09.964Z,51.29
2023-07-05T00:56:18.811Z,51.26
2023-07-05T00:57:29.445Z,51.01
2023-07-05T00:58:34.186Z,51.06
2023-07-05T00:59:48.074Z,51.25
2023-07-05T01:00:50.297Z,51.34
2023-07-05T01:02:02.689Z,51.50
2023-07-05T01:03:13.212Z,52.48
2023-07-05T01:04:15.136Z,52.38
2023-07-05T01:05:17.671Z,52.56
2023-07-05T01:06:23.521Z,52.32
2023-07-05T01:07:25.281Z,52.60
2023-07-05T01:08:26.931Z,52.99
2023-07-05T01:09:29.862Z,53.01
2023-07-05T01:10:32.019Z,53.13
2023-07-05T01:11:42.078Z,53.82
2023-07-05T01:12:56.690Z,53.17
2023-07-05T01:14:20.499Z,53.10
2023-07-05T01:15:32.213Z,52.76
2023-07-05T01:16:55.795Z,53.12
2023-07-05T01:18:32.879Z,53.06
2023-07-05T01:20:07.236Z,53.22
2023-07-05T01:21:27.546Z,53.21
2023-07-05T01:22:52.479Z,53.37
2023-07-05T01:24:18.004Z,53.13
2023-07-05T01:25:41.275Z,53.03
2023-07-05T01:27:24.149Z,53.51
2023-07-05T01:28:55.309Z,53.42
2023-07-05T01:30:18.240Z,52.66
2023-07-05T01:31:38.462Z,52.99
2023-07-05T01:32:56.607Z,52.81
2023-07-05T01:34:15.267Z,52.85
2023-07-05T01:35:26.695Z,52.41
2023-07-05T01:36:31.198Z,52.61
2023-07-05T01:37:44.874Z,53.20
2023-07-05T01:38:46.597Z,52.73
2023-07-05T01:39:49.015Z,52.65
2023-07-05T01:40:55.139Z,52.95
2023-07-05T01:41:56.942Z,53.04
2023-07-05T01:43:00.107Z,52.88
2023-07-05T01:44:02.492Z,52.64
2023-07-05T01:45:04.458Z,52.71
2023-07-05T01:46:32.094Z,52.45
2023-07-05T01:47:50.377Z,52.73
2023-07-05T01:49:04.205Z,52.56
2023-07-05T01:50:15.601Z,52.28
2023-07-05T01:51:40.143Z,52.51
2023-07-05T01:53:21.673Z,52.00
2023-07-05T01:54:51.385Z,51.99
2023-07-05T01:56:03.383Z,52.13
2023-07-05T01:57:44.542Z,52.24
2023-07-05T01:58:49.923Z,52.20
2023-07-05T02:00:00.550Z,52.39
2023-07-05T02:01:05.431Z,52.55
2023-07-05T02:02:10.710Z,52.61
2023-07-05T02:03:19.542Z,52.69
2023-07-05T02:04:24.551Z,52.92
2023-07-05T02:05:29.701Z,52.98
2023-07-05T02:06:33.857Z,53.18
2023-07-05T02:07:35.811Z,52.58
2023-07-05T02:08:39.502Z,52.63
2023-07-05T02:09:42.575Z,52.08
2023-07-05T02:10:44.321Z,51.99
2023-07-05T02:11:46.149Z,51.66
2023-07-05T02:12:49.085Z,51.26
2023-07-05T02:13:51.041Z,50.71
2023-07-05T02:14:53.012Z,49.88
2023-07-05T02:15:55.026Z,49.37
2023-07-05T02:16:56.923Z,48.45
2023-07-05T02:17:58.756Z,47.98
2023-07-05T02:19:02.639Z,48.33
2023-07-05T02:20:07.486Z,47.69
2023-07-05T02:21:11.636Z,48.50
2023-07-05T02:22:13.600Z,50.00
2023-07-05T02:23:15.460Z,50.93
2023-07-05T02:24:17.224Z,51.17
2023-07-05T02:25:21.437Z,51.42
2023-07-05T02:26:25.454Z,51.51
2023-07-05T02:27:28.961Z,51.36
2023-07-05T02:28:34.353Z,51.65
2023-07-05T02:29:36.057Z,51.73
2023-07-05T02:30:38.689Z,52.09
2023-07-05T02:31:40.434Z,52.11
2023-07-05T02:32:42.071Z,52.03
2023-07-05T02:33:46.856Z,51.91
2023-07-05T02:34:53.592Z,52.32
2023-07-05T02:35:55.826Z,52.51
2023-07-05T02:36:57.838Z,52.19
2023-07-05T02:38:04.968Z,52.10
2023-07-05T02:39:08.847Z,52.02
2023-07-05T02:40:10.774Z,52.63
2023-07-05T02:41:12.527Z,52.50
2023-07-05T02:42:14.487Z,52.81
2023-07-05T02:43:16.507Z,52.53
2023-07-05T02:44:18.174Z,52.46
2023-07-05T02:45:19.725Z,52.46
2023-07-05T02:46:21.480Z,52.07
2023-07-05T02:47:25.548Z,52.16
2023-07-05T02:48:27.219Z,52.19
2023-07-05T02:49:28.970Z,52.54
2023-07-05T02:50:33.852Z,52.27
2023-07-05T02:51:35.565Z,52.20
2023-07-05T02:52:39.729Z,52.55
2023-07-05T02:53:41.409Z,52.49
2023-07-05T02:54:43.042Z,52.92
2023-07-05T02:55:45.218Z,52.51
2023-07-05T02:56:46.935Z,52.53
2023-07-05T02:57:48.578Z,52.98
2023-07-05T02:58:51.013Z,53.10
2023-07-05T02:59:52.701Z,53.27
2023-07-05T03:00:56.788Z,53.14
2023-07-05T03:02:01.159Z,53.20
2023-07-05T03:03:03.112Z,53.63
2023-07-05T03:04:05.348Z,53.68
2023-07-05T03:05:11.301Z,53.61
2023-07-05T03:06:15.205Z,53.31
2023-07-05T03:07:16.933Z,53.47
2023-07-05T03:08:18.752Z,53.96
2023-07-05T03:09:22.442Z,55.02
2023-07-05T03:10:24.373Z,55.48
2023-07-05T03:11:26.152Z,55.78
2023-07-05T03:12:27.677Z,55.54
2023-07-05T03:13:32.388Z,55.32
2023-07-05T03:14:35.952Z,55.27
2023-07-05T03:15:39.506Z,55.24
2023-07-05T03:16:45.003Z,54.83
2023-07-05T03:17:47.201Z,55.70
2023-07-05T03:18:48.909Z,55.78
2023-07-05T03:19:53.507Z,55.67
2023-07-05T03:20:58.087Z,55.81
2023-07-05T03:22:00.408Z,55.53
2023-07-05T03:23:02.079Z,55.15
2023-07-05T03:24:05.157Z,55.63
2023-07-05T03:25:07.376Z,55.73
2023-07-05T03:26:11.772Z,56.02
2023-07-05T03:27:13.560Z,56.12
2023-07-05T03:28:18.031Z,56.01
2023-07-05T03:29:20.020Z,55.99
2023-07-05T03:30:24.294Z,56.35
2023-07-05T03:31:26.087Z,56.64
2023-07-05T03:32:30.698Z,57.22
2023-07-05T03:33:35.862Z,57.40
2023-07-05T03:34:37.707Z,57.01
2023-07-05T03:35:39.415Z,56.74
2023-07-05T03:36:41.196Z,57.00
2023-07-05T03:37:42.903Z,57.19
2023-07-05T03:38:50.136Z,56.86
2023-07-05T03:39:54.076Z,56.25
2023-07-05T03:41:15.060Z,56.41
2023-07-05T03:42:19.081Z,56.33
2023-07-05T03:43:21.053Z,56.43
2023-07-05T03:44:23.374Z,56.46
2023-07-05T03:45:25.321Z,56.63
2023-07-05T03:46:27.176Z,57.36
2023-07-05T03:47:29.892Z,57.64
2023-07-05T03:48:39.122Z,57.45
2023-07-05T03:49:43.656Z,57.46
2023-07-05T03:50:45.366Z,57.28
2023-07-05T03:51:46.955Z,57.66
2023-07-05T03:52:51.047Z,57.44
2023-07-05T03:53:58.724Z,56.95
2023-07-05T03:55:00.422Z,56.90
2023-07-05T03:56:04.218Z,57.19
2023-07-05T03:57:06.320Z,57.39
2023-07-05T03:58:08.027Z,57.19
2023-07-05T03:59:10.779Z,56.61
2023-07-05T04:00:15.789Z,56.37
2023-07-05T04:01:26.226Z,56.51
2023-07-05T04:02:27.981Z,56.96
2023-07-05T04:03:29.626Z,57.66
2023-07-05T04:04:31.457Z,57.51
2023-07-05T04:05:33.927Z,57.31
2023-07-05T04:06:35.735Z,57.39
2023-07-05T04:07:37.542Z,57.25
2023-07-05T04:08:40.855Z,57.48
2023-07-05T04:09:42.561Z,57.04
2023-07-05T04:10:47.898Z,57.21
2023-07-05T04:11:51.765Z,57.26
2023-07-05T04:12:53.512Z,57.31
2023-07-05T04:13:56.486Z,57.83
2023-07-05T04:14:58.390Z,57.02
2023-07-05T04:16:02.287Z,57.12
2023-07-05T04:17:04.258Z,57.09
2023-07-05T04:18:08.450Z,57.22
2023-07-05T04:19:10.522Z,57.59
2023-07-05T04:20:12.814Z,58.11
2023-07-05T04:21:14.751Z,57.69
2023-07-05T04:22:18.946Z,57.75
2023-07-05T04:23:20.630Z,58.20
2023-07-05T04:24:22.291Z,58.76
2023-07-05T04:25:23.960Z,58.27
2023-07-05T04:26:26.963Z,58.30
2023-07-05T04:27:31.549Z,58.19
2023-07-05T04:28:35.042Z,58.29
2023-07-05T04:29:36.708Z,58.18
2023-07-05T04:30:38.357Z,58.03
2023-07-05T04:31:40.114Z,57.86
2023-07-05T04:32:41.805Z,58.55
2023-07-05T04:33:44.099Z,58.20
2023-07-05T04:34:45.791Z,58.07
2023-07-05T04:35:50.994Z,58.94
2023-07-05T04:36:52.776Z,58.41
2023-07-05T04:37:54.385Z,58.24
2023-07-05T04:39:01.765Z,58.26
2023-07-05T04:40:04.773Z,58.13
2023-07-05T04:41:06.515Z,57.85
2023-07-05T04:42:08.225Z,57.97
2023-07-05T04:43:10.416Z,57.77
2023-07-05T04:44:12.119Z,57.72
2023-07-05T04:45:13.780Z,58.09
2023-07-05T04:46:15.551Z,57.99
2023-07-05T04:47:17.450Z,57.70
2023-07-05T04:48:20.002Z,57.70
2023-07-05T04:49:24.170Z,57.67
2023-07-05T04:50:28.334Z,57.79
2023-07-05T04:51:30.128Z,57.55
2023-07-05T04:52:31.887Z,58.11
2023-07-05T04:53:37.274Z,58.27
2023-07-05T04:54:41.159Z,58.00
2023-07-05T04:55:50.704Z,58.13
2023-07-05T04:56:52.391Z,58.07
2023-07-05T04:57:56.262Z,58.25
2023-07-05T04:58:58.397Z,57.66
2023-07-05T05:00:05.750Z,57.32
2023-07-05T05:01:09.214Z,57.36
2023-07-05T05:03:14.599Z,57.78
2023-07-05T05:04:16.500Z,57.54
2023-07-05T05:05:18.329Z,57.49
2023-07-05T05:06:20.052Z,57.69
2023-07-05T05:07:23.951Z,57.94
2023-07-05T05:08:26.078Z,57.39
2023-07-05T05:09:27.822Z,57.02
2023-07-05T05:10:30.078Z,56.87
2023-07-05T05:11:31.769Z,56.88
2023-07-05T05:12:35.717Z,57.13
2023-07-05T05:13:37.791Z,57.14
2023-07-05T05:14:39.692Z,57.12
2023-07-05T05:15:41.454Z,56.96
2023-07-05T05:16:43.192Z,57.00
2023-07-05T05:17:45.084Z,56.48
2023-07-05T05:18:46.847Z,56.67
2023-07-05T05:19:48.431Z,57.37
2023-07-05T05:20:51.128Z,57.08
2023-07-05T05:21:55.277Z,56.76
2023-07-05T05:22:57.016Z,57.01
2023-07-05T05:24:00.976Z,56.36
2023-07-05T05:25:02.995Z,56.42
2023-07-05T05:26:04.797Z,56.26
2023-07-05T05:27:08.846Z,55.46
2023-07-05T05:28:14.072Z,54.69
2023-07-05T05:29:16.078Z,54.22
2023-07-05T05:30:20.103Z,53.47
2023-07-05T05:31:21.890Z,52.36
2023-07-05T05:32:23.695Z,51.30
2023-07-05T05:33:25.484Z,50.95
2023-07-05T05:34:27.366Z,50.31
2023-07-05T05:35:29.468Z,49.28
2023-07-05T05:36:31.231Z,48.37
2023-07-05T05:37:32.778Z,47.08
2023-07-05T05:38:36.850Z,46.72
2023-07-05T05:39:38.622Z,45.93
2023-07-05T05:40:40.219Z,44.73
2023-07-05T05:41:41.884Z,44.53
2023-07-05T05:42:43.727Z,44.11
2023-07-05T05:43:47.948Z,43.84
2023-07-05T05:44:49.681Z,44.39
2023-07-05T05:45:51.438Z,44.38
2023-07-05T05:46:53.000Z,44.85
2023-07-05T05:47:57.811Z,45.50
2023-07-05T05:48:59.577Z,45.62
2023-07-05T05:50:01.113Z,46.59
2023-07-05T05:51:03.018Z,46.29
2023-07-05T05:52:07.648Z,46.76
2023-07-05T05:53:12.382Z,46.93
2023-07-05T05:54:14.178Z,47.36
2023-07-05T05:55:16.290Z,47.65
2023-07-05T05:56:20.761Z,48.20
2023-07-05T05:57:24.667Z,48.89
2023-07-05T05:58:28.459Z,49.36
2023-07-05T05:59:30.273Z,49.24
2023-07-05T06:00:32.892Z,49.04
2023-07-05T06:01:34.710Z,49.24
2023-07-05T06:02:39.847Z,49.12
2023-07-05T06:03:44.197Z,48.77
2023-07-05T06:04:48.124Z,48.96
2023-07-05T06:05:50.665Z,49.39
2023-07-05T06:06:52.390Z,49.31
2023-07-05T06:07:56.550Z,49.18
2023-07-05T06:08:58.253Z,48.53
2023-07-05T06:10:02.986Z,47.97
2023-07-05T06:11:05.759Z,48.30
2023-07-05T06:12:07.898Z,47.71
2023-07-05T06:13:11.961Z,47.53
2023-07-05T06:14:13.717Z,47.38
2023-07-05T06:15:15.580Z,47.06
2023-07-05T06:16:19.543Z,47.20
2023-07-05T06:17:21.769Z,46.06
2023-07-05T06:18:23.546Z,46.89
2023-07-05T06:19:25.099Z,46.48
2023-07-05T06:20:28.444Z,46.57
2023-07-05T06:21:30.524Z,46.84
2023-07-05T06:22:32.880Z,45.86
2023-07-05T06:23:34.700Z,46.29
2023-07-05T06:24:36.272Z,46.34
2023-07-05T06:25:37.939Z,46.16
2023-07-05T06:26:42.338Z,46.55
2023-07-05T06:27:44.017Z,46.14
2023-07-05T06:28:46.296Z,45.86
2023-07-05T06:29:48.034Z,46.42
2023-07-05T06:30:49.630Z,46.68
2023-07-05T06:31:52.293Z,45.71
2023-07-05T06:32:59.073Z,45.21
2023-07-05T06:34:01.496Z,45.40
2023-07-05T06:35:03.326Z,45.88
2023-07-05T06:36:06.769Z,45.98
2023-07-05T06:37:10.742Z,46.54
2023-07-05T06:38:12.480Z,47.35
2023-07-05T06:39:15.196Z,47.21
2023-07-05T06:40:16.911Z,46.14
2023-07-05T06:41:19.641Z,46.67
2023-07-05T06:42:21.440Z,47.28
2023-07-05T06:43:30.592Z,47.71
2023-07-05T06:44:32.273Z,48.24
2023-07-05T06:45:34.661Z,47.92
2023-07-05T06:46:36.468Z,47.69
2023-07-05T06:47:38.455Z,47.18
2023-07-05T06:48:43.182Z,46.88
2023-07-05T06:49:44.846Z,46.79
2023-07-05T06:50:53.427Z,47.49
2023-07-05T06:51:55.489Z,47.50
2023-07-05T06:53:22.625Z,47.03
2023-07-05T06:54:22.545Z,47.36
2023-07-05T06:55:24.295Z,48.33
2023-07-05T06:56:25.934Z,47.98
2023-07-05T06:57:27.736Z,47.73
2023-07-05T06:58:32.121Z,48.09
2023-07-05T06:59:33.954Z,48.07
2023-07-05T07:00:36.133Z,49.29
2023-07-05T07:01:38.003Z,49.21
2023-07-05T07:02:39.775Z,48.76
2023-07-05T07:03:43.387Z,49.19
2023-07-05T07:04:49.855Z,49.68
2023-07-05T07:05:54.034Z,49.90
2023-07-05T07:06:55.754Z,49.95
2023-07-05T07:07:57.693Z,50.29
2023-07-05T07:08:59.592Z,50.87
2023-07-05T07:10:02.844Z,50.92
2023-07-05T07:11:08.572Z,51.02
2023-07-05T07:12:12.618Z,51.22
2023-07-05T07:13:14.917Z,52.99
2023-07-05T07:14:16.732Z,51.65
2023-07-05T07:15:18.534Z,51.64
2023-07-05T07:16:20.105Z,52.48
2023-07-05T07:17:22.065Z,52.93
2023-07-05T07:18:25.420Z,52.48
2023-07-05T07:19:27.336Z,52.42
2023-07-05T07:20:29.273Z,52.26
2023-07-05T07:21:31.567Z,52.45
2023-07-05T07:22:33.309Z,52.47
2023-07-05T07:23:35.197Z,52.47
2023-07-05T07:24:36.750Z,53.41
2023-07-05T07:25:38.484Z,53.59
2023-07-05T07:26:40.244Z,53.36
2023-07-05T07:27:41.861Z,53.44
2023-07-05T07:28:47.429Z,53.38
2023-07-05T07:29:51.910Z,53.56
2023-07-05T07:30:54.592Z,53.16
2023-07-05T07:31:56.417Z,52.75
2023-07-05T07:32:58.070Z,53.58
2023-07-05T07:34:02.397Z,53.48
2023-07-05T07:35:04.466Z,53.54
2023-07-05T07:36:15.268Z,53.73
2023-07-05T07:37:19.067Z,53.52
2023-07-05T07:38:20.715Z,53.83
2023-07-05T07:39:22.319Z,54.23
2023-07-05T07:40:24.008Z,54.40
2023-07-05T07:41:28.004Z,54.68
2023-07-05T07:42:31.800Z,55.00
2023-07-05T07:43:33.546Z,54.71
2023-07-05T07:44:35.092Z,55.12
2023-07-05T07:45:36.852Z,55.00
2023-07-05T07:46:39.563Z,55.14
2023-07-05T07:47:41.265Z,54.75
2023-07-05T07:48:47.041Z,55.13
2023-07-05T07:49:51.660Z,54.39
2023-07-05T07:50:53.640Z,54.56
2023-07-05T07:51:58.919Z,53.86
2023-07-05T07:53:00.624Z,53.89
2023-07-05T07:54:04.904Z,53.59
2023-07-05T07:55:07.872Z,53.25
2023-07-05T07:56:13.974Z,53.17
2023-07-05T07:57:18.848Z,52.84
2023-07-05T07:58:20.584Z,52.73
2023-07-05T07:59:22.703Z,53.16
2023-07-05T08:00:24.490Z,53.45
2023-07-05T08:01:27.879Z,52.43
2023-07-05T08:02:30.888Z,52.30
2023-07-05T08:03:32.712Z,51.96
2023-07-05T08:04:38.238Z,51.91
2023-07-05T08:05:40.084Z,51.72
2023-07-05T08:06:52.248Z,50.83
2023-07-05T08:07:54.084Z,51.13
2023-07-05T08:08:56.617Z,51.24
2023-07-05T08:10:00.646Z,50.85
2023-07-05T08:11:06.800Z,49.70
2023-07-05T08:12:10.000Z,48.93
2023-07-05T08:13:11.778Z,48.97
2023-07-05T08:14:18.659Z,49.31
2023-07-05T08:15:20.470Z,49.33
2023-07-05T08:16:22.472Z,49.51
2023-07-05T08:17:26.566Z,48.93
2023-07-05T08:18:29.434Z,48.92
2023-07-05T08:19:31.802Z,49.65
2023-07-05T08:20:36.271Z,50.01
2023-07-05T08:21:38.150Z,50.09
2023-07-05T08:22:39.965Z,49.90
2023-07-05T08:23:43.275Z,50.13
2023-07-05T08:24:45.038Z,50.04
2023-07-05T08:25:47.092Z,49.70
2023-07-05T08:26:48.945Z,49.62
2023-07-05T08:27:50.593Z,49.04
2023-07-05T08:28:52.204Z,49.33
2023-07-05T08:29:53.957Z,48.79
2023-07-05T08:31:01.149Z,48.82
2023-07-05T08:32:05.700Z,48.60
2023-07-05T08:33:07.875Z,49.10
2023-07-05T08:34:13.527Z,49.41
2023-07-05T08:35:15.256Z,49.50
2023-07-05T08:36:29.510Z,49.69
2023-07-05T08:37:31.456Z,49.82
2023-07-05T08:38:33.011Z,50.12
2023-07-05T08:39:35.628Z,49.75
2023-07-05T08:40:41.459Z,49.93
2023-07-05T08:41:45.505Z,49.81
2023-07-05T08:43:03.011Z,49.55
2023-07-05T08:44:04.887Z,49.96
2023-07-05T08:45:19.576Z,49.54
2023-07-05T08:46:22.513Z,49.42
2023-07-05T08:47:35.103Z,49.19
2023-07-05T08:48:40.380Z,48.77
2023-07-05T08:50:14.246Z,48.52
2023-07-05T08:51:25.513Z,48.58
2023-07-05T08:52:32.882Z,48.84
2023-07-05T08:53:48.370Z,48.26
2023-07-05T08:54:58.368Z,48.45
2023-07-05T08:56:21.474Z,48.93
2023-07-05T08:57:54.873Z,48.18
2023-07-05T08:59:22.725Z,47.80
2023-07-05T09:00:40.995Z,47.73
2023-07-05T09:01:43.607Z,47.65
2023-07-05T09:02:47.566Z,47.21
2023-07-05T09:03:51.908Z,47.20
2023-07-05T09:04:56.787Z,47.33
2023-07-05T09:06:23.018Z,47.31
2023-07-05T09:07:57.728Z,47.53
2023-07-05T09:09:06.045Z,47.09
2023-07-05T09:10:16.292Z,47.59
2023-07-05T09:11:46.091Z,46.60
2023-07-05T09:13:03.148Z,47.11
2023-07-05T09:14:24.292Z,46.89
2023-07-05T09:15:35.534Z,47.25
2023-07-05T09:17:14.114Z,47.81
2023-07-05T09:18:36.491Z,48.16
2023-07-05T09:19:46.660Z,48.71
2023-07-05T09:21:33.508Z,48.49
2023-07-05T09:22:38.570Z,48.57
2023-07-05T09:23:46.070Z,48.33
2023-07-05T09:24:48.049Z,48.48
2023-07-05T09:25:56.341Z,49.04
2023-07-05T09:27:04.971Z,48.11
2023-07-05T09:28:22.044Z,47.83
2023-07-05T09:29:58.466Z,47.32
2023-07-05T09:31:01.143Z,47.20
2023-07-05T09:32:14.376Z,47.71
2023-07-05T09:33:35.322Z,48.15
2023-07-05T09:35:00.575Z,48.54
2023-07-05T09:36:23.616Z,48.55
2023-07-05T09:38:01.597Z,48.63
2023-07-05T09:39:54.087Z,49.19
2023-07-05T09:41:30.074Z,49.77
2023-07-05T09:43:32.598Z,50.09
2023-07-05T09:44:55.020Z,49.62
2023-07-05T09:50:11.353Z,48.43
2023-07-05T09:51:33.910Z,48.93
2023-07-05T10:02:29.164Z,46.41
2023-07-05T10:03:37.932Z,45.96
2023-07-05T10:04:54.392Z,46.73
2023-07-05T10:06:02.306Z,46.04
2023-07-05T10:07:04.897Z,44.92
2023-07-05T10:08:16.248Z,44.52
2023-07-05T10:09:22.212Z,45.24
2023-07-05T10:10:33.561Z,44.59
2023-07-05T10:11:46.886Z,44.60
2023-07-05T10:12:52.916Z,44.20
2023-07-05T10:14:04.999Z,43.26
2023-07-05T10:15:24.562Z,43.77
2023-07-05T10:16:26.618Z,43.16
2023-07-05T10:17:43.450Z,43.58
2023-07-05T10:18:45.251Z,44.03
2023-07-05T10:19:52.498Z,44.09
2023-07-05T10:20:59.000Z,45.06
2023-07-05T10:22:15.851Z,44.51
2023-07-05T10:23:23.029Z,45.07
2023-07-05T10:24:26.004Z,44.18
2023-07-05T10:25:35.350Z,44.95
2023-07-05T10:26:37.222Z,44.33
2023-07-05T10:27:39.196Z,44.86
2023-07-05T10:28:43.128Z,45.11
2023-07-05T10:29:48.653Z,45.31
2023-07-05T10:30:58.158Z,45.83
2023-07-05T10:32:01.451Z,46.05
2023-07-05T10:33:09.433Z,46.01
2023-07-05T10:34:20.847Z,46.28
2023-07-05T10:35:25.761Z,45.94
2023-07-05T10:36:27.578Z,45.97
2023-07-05T10:37:39.818Z,45.15
2023-07-05T10:38:49.970Z,46.43
2023-07-05T10:39:51.788Z,46.85
2023-07-05T10:40:56.603Z,47.32
2023-07-05T10:42:00.837Z,46.98
2023-07-05T10:43:06.786Z,47.35
2023-07-05T10:44:20.686Z,46.81
2023-07-05T10:45:25.886Z,46.59
2023-07-05T10:46:28.788Z,46.90
2023-07-05T10:47:32.923Z,47.25
2023-07-05T10:48:43.343Z,47.26
2023-07-05T10:49:48.168Z,47.22
2023-07-05T10:50:50.984Z,46.66
2023-07-05T10:51:57.491Z,47.56
2023-07-05T10:53:06.056Z,47.63
2023-07-05T10:54:19.815Z,48.21
2023-07-05T10:55:36.947Z,48.54
2023-07-05T10:56:41.521Z,48.31
2023-07-05T10:57:53.693Z,47.71
2023-07-05T10:59:14.103Z,48.62
2023-07-05T11:00:44.905Z,47.89
2023-07-05T11:02:15.680Z,47.84
2023-07-05T11:03:25.405Z,47.69
2023-07-05T11:04:31.371Z,46.49
2023-07-05T11:05:45.075Z,45.62
2023-07-05T11:06:49.471Z,45.75
2023-07-05T11:07:56.457Z,45.95
2023-07-05T11:08:58.442Z,46.28
2023-07-05T11:10:00.333Z,46.43
2023-07-05T11:11:20.754Z,45.82
2023-07-05T11:12:26.551Z,45.41
2023-07-05T11:13:30.962Z,46.66
2023-07-05T11:14:33.933Z,46.50
2023-07-05T11:15:36.354Z,45.74
2023-07-05T11:16:41.078Z,45.73
2023-07-05T11:17:47.919Z,45.42
2023-07-05T11:18:57.396Z,45.27
2023-07-05T11:19:59.533Z,44.77
2023-07-05T11:21:01.336Z,43.62
2023-07-05T11:22:05.306Z,43.56
2023-07-05T11:23:12.494Z,44.04
2023-07-05T11:24:39.851Z,44.54
2023-07-05T11:25:53.907Z,44.31
2023-07-05T11:26:55.561Z,44.34
2023-07-05T11:28:00.183Z,43.85
2023-07-05T11:29:22.510Z,43.46
2023-07-05T11:30:47.965Z,44.35
2023-07-05T11:31:49.847Z,44.47
2023-07-05T11:33:04.197Z,44.61
2023-07-05T11:34:27.316Z,44.82
2023-07-05T11:35:52.256Z,45.15
2023-07-05T11:37:06.237Z,45.55
2023-07-05T11:38:08.022Z,46.05
2023-07-05T11:39:09.585Z,46.55
2023-07-05T11:40:49.882Z,47.05
2023-07-05T11:41:51.784Z,46.53
2023-07-05T11:42:53.424Z,46.21
2023-07-05T11:43:57.552Z,45.79
2023-07-05T11:45:05.258Z,46.06
2023-07-05T11:46:49.571Z,46.51
2023-07-05T11:47:57.232Z,46.49
2023-07-05T11:49:16.058Z,46.42
2023-07-05T11:50:29.209Z,46.16
2023-07-05T11:51:38.575Z,45.81
2023-07-05T11:52:47.947Z,45.22
2023-07-05T11:53:50.085Z,45.16
2023-07-05T11:55:13.459Z,45.30
2023-07-05T11:56:18.276Z,45.27
2023-07-05T11:57:20.529Z,46.19
2023-07-05T11:58:30.976Z,46.17
2023-07-05T11:59:37.594Z,46.32
2023-07-05T12:00:59.659Z,46.83
2023-07-05T12:02:13.937Z,46.97
2023-07-05T12:03:24.022Z,46.64
2023-07-05T12:04:28.319Z,46.32
2023-07-05T12:05:37.280Z,45.71
2023-07-05T12:06:42.305Z,46.02
2023-07-05T12:07:48.369Z,44.83
2023-07-05T12:09:04.817Z,44.89
2023-07-05T12:10:08.639Z,45.01
2023-07-05T12:11:12.996Z,45.76
2023-07-05T12:12:15.159Z,45.93
2023-07-05T12:13:24.069Z,44.96
2023-07-05T12:14:26.203Z,45.11
2023-07-05T12:15:28.328Z,44.83
2023-07-05T12:16:31.800Z,45.03
2023-07-05T12:17:38.333Z,44.98
2023-07-05T12:18:46.006Z,44.17
2023-07-05T12:19:51.132Z,44.37
2023-07-05T12:20:55.835Z,44.57
2023-07-05T12:22:10.878Z,44.33
2023-07-05T12:23:14.664Z,43.27
2023-07-05T12:24:19.171Z,42.74
2023-07-05T12:25:21.270Z,43.01
2023-07-05T12:26:25.829Z,42.56
2023-07-05T12:27:37.105Z,42.99
2023-07-05T12:28:43.749Z,43.08
2023-07-05T12:29:50.723Z,43.41
2023-07-05T12:31:07.766Z,43.33
2023-07-05T12:32:18.106Z,43.03
2023-07-05T12:33:25.924Z,43.21
2023-07-05T12:34:27.622Z,43.02
2023-07-05T12:35:29.962Z,42.05
2023-07-05T12:36:44.169Z,42.82
2023-07-05T12:37:49.409Z,43.04
2023-07-05T12:39:06.181Z,42.96
2023-07-05T12:40:17.998Z,42.33
2023-07-05T12:41:28.062Z,42.45
2023-07-05T12:42:30.208Z,42.20
2023-07-05T12:43:33.942Z,43.00
2023-07-05T12:44:40.201Z,42.81
2023-07-05T12:45:42.266Z,40.79
2023-07-05T12:46:48.315Z,40.14
2023-07-05T12:47:51.538Z,41.77
2023-07-05T12:48:53.956Z,42.08
2023-07-05T12:50:05.754Z,42.68
2023-07-05T12:51:29.420Z,41.54
2023-07-05T12:52:31.469Z,41.51
2023-07-05T12:53:35.868Z,41.35
2023-07-05T12:54:39.150Z,40.95
2023-07-05T12:55:42.071Z,40.80
2023-07-05T12:56:46.973Z,41.01
2023-07-05T12:57:53.324Z,40.50
2023-07-05T12:59:00.499Z,40.73
2023-07-05T13:00:06.690Z,40.74
2023-07-05T13:01:13.632Z,40.81
2023-07-05T13:02:32.138Z,41.05
2023-07-05T13:03:35.544Z,40.91
2023-07-05T13:04:39.012Z,40.68
2023-07-05T13:05:42.112Z,40.46
2023-07-05T13:06:44.311Z,41.24
2023-07-05T13:07:49.773Z,40.80
2023-07-05T13:08:54.228Z,41.92
2023-07-05T13:10:09.821Z,41.92
2023-07-05T13:11:16.161Z,42.33
2023-07-05T13:12:17.976Z,41.62
2023-07-05T13:13:32.424Z,42.14
2023-07-05T13:14:39.908Z,41.91
2023-07-05T13:15:41.929Z,41.89
2023-07-05T13:16:51.986Z,42.41
2023-07-05T13:17:54.402Z,42.08
2023-07-05T13:19:04.088Z,42.55
2023-07-05T13:20:20.984Z,42.14
2023-07-05T13:21:22.759Z,42.33
2023-07-05T13:22:25.715Z,43.40
2023-07-05T13:23:30.863Z,42.60
2023-07-05T13:24:32.474Z,42.58
2023-07-05T13:25:43.272Z,42.79
2023-07-05T13:26:47.814Z,42.14
2023-07-05T13:27:49.515Z,42.08
2023-07-05T13:28:52.488Z,42.31
2023-07-05T13:30:07.824Z,42.63
2023-07-05T13:31:09.541Z,42.69
2023-07-05T13:32:35.644Z,41.86
2023-07-05T13:33:37.977Z,41.71
2023-07-05T13:34:39.751Z,42.05
2023-07-05T13:35:41.626Z,42.11
2023-07-05T13:36:43.415Z,43.07
2023-07-05T13:37:45.211Z,42.36
2023-07-05T13:38:46.980Z,42.86
2023-07-05T13:39:48.651Z,42.76
2023-07-05T13:40:54.160Z,43.09
2023-07-05T13:41:59.421Z,42.77
2023-07-05T13:43:05.917Z,42.28
2023-07-05T13:44:16.708Z,42.12
2023-07-05T13:45:23.436Z,42.30
2023-07-05T13:46:25.324Z,42.07
2023-07-05T13:47:26.984Z,42.21
2023-07-05T13:48:29.793Z,42.04
2023-07-05T13:49:31.608Z,41.90
2023-07-05T13:50:35.198Z,41.86
2023-07-05T13:51:44.067Z,42.39
2023-07-05T13:52:47.531Z,43.44
2023-07-05T13:53:49.208Z,42.81
2023-07-05T13:54:50.832Z,41.88
2023-07-05T13:55:57.113Z,42.14
2023-07-05T13:57:01.135Z,40.88
2023-07-05T13:58:07.998Z,40.73
2023-07-05T13:59:16.431Z,40.74
2023-07-05T14:00:19.115Z,41.70
2023-07-05T14:01:23.644Z,41.49
2023-07-05T14:02:35.310Z,42.02
2023-07-05T14:03:52.879Z,41.22
2023-07-05T14:05:00.214Z,40.36
2023-07-05T14:06:01.876Z,40.03
2023-07-05T14:07:03.587Z,40.00
2023-07-05T14:08:13.145Z,39.80
2023-07-05T14:09:15.409Z,39.26
2023-07-05T14:10:17.569Z,39.87
2023-07-05T14:11:23.169Z,39.89
2023-07-05T14:12:27.467Z,39.38
2023-07-05T14:13:31.349Z,39.79
2023-07-05T14:14:33.061Z,39.67
2023-07-05T14:15:44.871Z,40.03
2023-07-05T14:16:46.948Z,39.40
2023-07-05T14:17:51.324Z,39.15
2023-07-05T14:18:53.097Z,39.78
2023-07-05T14:19:54.689Z,39.63
2023-07-05T14:20:56.785Z,38.75
2023-07-05T14:22:03.309Z,39.41
2023-07-05T14:23:11.687Z,39.01
2023-07-05T14:24:18.271Z,38.68
2023-07-05T14:25:22.869Z,38.31
2023-07-05T14:26:25.668Z,38.41
2023-07-05T14:27:28.689Z,38.89
2023-07-05T14:28:31.563Z,38.75
2023-07-05T14:29:33.224Z,38.47